createdAt,value
2023-01-30T00:04:22.678Z,100302.68
2023-01-30T00:09:22.302Z,100303.16
2023-01-30T00:10:05.894Z,100303.16
2023-01-30T00:14:22.346Z,100291.94
2023-01-30T00:19:22.739Z,100289.57
2023-01-30T00:24:22.397Z,100268.5
2023-01-30T00:27:59.159Z,100253.77
2023-01-30T00:29:22.273Z,100253.77
2023-01-30T00:34:22.762Z,100248.11
2023-01-30T00:39:22.376Z,100237.25
2023-01-30T00:43:16.320Z,100220.62
2023-01-30T00:44:32.233Z,100220.62
2023-01-30T00:49:22.503Z,100209.47
2023-01-30T00:54:22.310Z,100198.29999999999
2023-01-30T00:59:22.310Z,100189.29000000001
2023-01-30T01:04:22.430Z,100172.31
2023-01-30T01:09:22.536Z,100165.73
2023-01-30T01:14:22.340Z,100147.97
2023-01-30T01:17:05.378Z,100135.13
2023-01-30T01:19:22.261Z,100135.13
2023-01-30T01:24:22.341Z,100111.15999999999
2023-01-30T01:29:22.749Z,100096.0
2023-01-30T01:32:46.584Z,100082.34
2023-01-30T01:34:22.456Z,100082.34
2023-01-30T01:39:22.754Z,100074.49
2023-01-30T01:44:24.056Z,100063.7
2023-01-30T01:47:15.405Z,100053.62
2023-01-30T01:49:25.818Z,100053.62
2023-01-30T01:52:27.940Z,100042.98999999999
2023-01-30T01:54:28.235Z,100042.98999999999
2023-01-30T01:59:29.208Z,100024.19
2023-01-30T02:04:33.433Z,100014.97
2023-01-30T02:06:00.117Z,100014.97
2023-01-30T02:09:22.510Z,100016.95999999999
2023-01-30T02:14:23.222Z,100009.67000000001
2023-01-30T02:19:30.946Z,99996.48999999999
2023-01-30T02:24:41.961Z,99992.83
2023-01-30T02:29:38.643Z,99988.14
2023-01-30T02:34:20.013Z,99976.35
2023-01-30T02:34:32.500Z,99976.35
2023-01-30T02:39:32.326Z,99979.26
2023-01-30T02:44:29.341Z,99976.45
2023-01-30T02:49:28.217Z,99964.25
2023-01-30T02:54:22.480Z,99944.78
2023-01-30T02:57:34.860Z,99932.47
2023-01-30T02:59:28.936Z,99932.47
2023-01-30T03:04:36.767Z,99924.34
2023-01-30T03:09:37.071Z,99920.09000000001
2023-01-30T03:14:26.349Z,99914.4
2023-01-30T03:16:05.911Z,99914.4
2023-01-30T03:19:22.352Z,99895.29
2023-01-30T03:21:48.223Z,99884.87
2023-01-30T03:24:23.002Z,99884.87
2023-01-30T03:29:22.770Z,99856.98
2023-01-30T03:34:22.129Z,99833.32
2023-01-30T03:39:23.358Z,99830.48999999999
2023-01-30T03:44:22.149Z,99811.03
2023-01-30T03:49:22.611Z,99804.63
2023-01-30T03:50:56.038Z,99804.63
2023-01-30T03:54:22.164Z,99798.64
2023-01-30T03:59:22.460Z,99789.59
2023-01-30T04:04:22.637Z,99786.58
2023-01-30T04:09:22.118Z,99783.04000000001
2023-01-30T04:13:43.131Z,99768.19
2023-01-30T04:14:22.132Z,99768.19
2023-01-30T04:19:22.530Z,99748.94
2023-01-30T04:24:22.143Z,99740.25
2023-01-30T04:24:49.245Z,99740.25
2023-01-30T04:29:22.093Z,99723.24
2023-01-30T04:30:38.214Z,99723.24
2023-01-30T04:34:22.404Z,99712.45
2023-01-30T04:34:31.829Z,99712.45
2023-01-30T04:39:22.267Z,99703.51000000001
2023-01-30T04:44:22.591Z,99688.61
2023-01-30T04:49:22.061Z,99669.45
2023-01-30T04:50:42.392Z,99669.45
2023-01-30T04:54:22.272Z,99666.06
2023-01-30T04:55:22.290Z,99666.06
2023-01-30T04:59:22.472Z,99653.7
2023-01-30T05:04:22.061Z,99658.01
2023-01-30T05:09:22.707Z,99653.72
2023-01-30T05:14:22.127Z,99641.48
2023-01-30T05:19:22.086Z,99627.70000000001
2023-01-30T05:21:42.251Z,99611.05
2023-01-30T05:24:22.045Z,99611.05
2023-01-30T05:29:22.312Z,99583.89
2023-01-30T05:34:22.280Z,99592.89
2023-01-30T05:39:22.058Z,99577.95999999999
2023-01-30T05:44:22.404Z,99573.41
2023-01-30T05:49:22.400Z,99568.89
2023-01-30T05:54:22.025Z,99562.72
2023-01-30T05:56:05.180Z,99562.72
2023-01-30T05:59:22.166Z,99546.43
2023-01-30T06:00:30.563Z,99546.43
2023-01-30T06:04:22.088Z,99544.7
2023-01-30T06:05:56.584Z,99544.7
2023-01-30T06:07:13.301Z,99546.5
2023-01-30T06:09:21.999Z,99546.5
2023-01-30T06:14:22.493Z,99529.36
2023-01-30T06:19:22.219Z,99503.97
2023-01-30T06:24:22.251Z,99491.58
2023-01-30T06:29:22.219Z,99503.09
2023-01-30T06:30:12.906Z,99503.09
2023-01-30T06:34:22.076Z,99500.58
2023-01-30T06:39:22.221Z,99493.86
2023-01-30T06:44:22.580Z,99491.89
2023-01-30T06:49:21.966Z,99490.91
2023-01-30T06:54:22.138Z,99478.89
2023-01-30T06:59:22.550Z,99467.81
2023-01-30T07:04:21.990Z,99452.92
2023-01-30T07:09:22.011Z,99458.76
2023-01-30T07:14:22.255Z,99452.21
2023-01-30T07:19:22.028Z,99435.17
2023-01-30T07:23:50.648Z,99427.14
2023-01-30T07:24:21.940Z,99427.14
2023-01-30T07:25:36.031Z,99427.14
2023-01-30T07:29:22.015Z,99428.22
2023-01-30T07:32:57.090Z,99425.58
2023-01-30T07:34:21.991Z,99425.58
2023-01-30T07:39:22.291Z,99413.12000000001
2023-01-30T07:44:22.000Z,99413.79
2023-01-30T07:49:13.165Z,99404.0
2023-01-30T07:49:21.951Z,99404.0
2023-01-30T07:52:47.062Z,99394.72
2023-01-30T07:54:22.033Z,99394.72
2023-01-30T07:55:44.083Z,99394.72
2023-01-30T07:56:55.759Z,99387.48000000001
2023-01-30T07:59:21.942Z,99387.48000000001
2023-01-30T08:03:13.577Z,99387.98000000001
2023-01-30T08:04:22.090Z,99387.98000000001
2023-01-30T08:09:22.133Z,99377.84
2023-01-30T08:10:21.405Z,99377.84
2023-01-30T08:14:22.356Z,99372.45
2023-01-30T08:17:31.822Z,99363.73
2023-01-30T08:19:22.063Z,99363.73
2023-01-30T08:24:21.927Z,99354.92
2023-01-30T08:29:24.282Z,99355.62999999999
2023-01-30T08:34:21.915Z,99357.76
2023-01-30T08:39:21.887Z,99356.14
2023-01-30T08:42:26.552Z,99347.94
2023-01-30T08:44:22.053Z,99347.94
2023-01-30T08:49:21.855Z,99357.53
2023-01-30T08:53:42.847Z,99334.89
2023-01-30T08:54:21.969Z,99334.89
2023-01-30T08:59:22.065Z,99331.03
2023-01-30T09:04:23.987Z,99319.34
2023-01-30T09:06:18.559Z,99307.03
2023-01-30T09:09:22.013Z,99307.03
2023-01-30T09:14:22.166Z,99296.59
2023-01-30T09:19:23.747Z,99284.0
2023-01-30T09:24:25.495Z,99277.23
2023-01-30T09:24:35.808Z,99277.23
2023-01-30T09:29:22.714Z,99260.17
2023-01-30T09:32:52.854Z,99252.37
2023-01-30T09:34:26.417Z,99252.37
2023-01-30T09:37:34.652Z,99255.06
2023-01-30T09:39:22.701Z,99255.06
2023-01-30T09:39:32.927Z,99255.06
2023-01-30T09:44:41.280Z,99241.0
2023-01-30T09:49:35.889Z,99238.09
2023-01-30T09:54:28.573Z,99225.63
2023-01-30T09:59:27.042Z,99214.01
2023-01-30T10:04:27.516Z,99210.29999999999
2023-01-30T10:09:30.082Z,99206.55
2023-01-30T10:13:59.854Z,99196.45000000001
2023-01-30T10:14:41.175Z,99196.45000000001
2023-01-30T10:17:58.488Z,99188.42
2023-01-30T10:19:36.743Z,99188.42
2023-01-30T10:23:11.360Z,99173.89
2023-01-30T10:24:36.160Z,99173.89
2023-01-30T10:29:28.062Z,99172.0
2023-01-30T10:34:27.908Z,99160.36
2023-01-30T10:37:57.477Z,99157.62
2023-01-30T10:39:28.888Z,99157.62
2023-01-30T10:42:11.983Z,99149.98000000001
2023-01-30T10:44:22.631Z,99149.98000000001
2023-01-30T10:49:35.636Z,99128.71
2023-01-30T10:51:32.911Z,99124.87
2023-01-30T10:54:27.661Z,99124.87
2023-01-30T10:55:37.929Z,99124.87
2023-01-30T10:58:47.761Z,99130.0
2023-01-30T10:59:27.057Z,99130.0
2023-01-30T11:04:27.707Z,99130.47
2023-01-30T11:09:24.340Z,99117.31
2023-01-30T11:11:49.118Z,99118.43000000001
2023-01-30T11:14:21.823Z,99118.43000000001
2023-01-30T11:14:52.976Z,99118.43000000001
2023-01-30T11:19:23.853Z,99102.88
2023-01-30T11:19:55.605Z,99102.88
2023-01-30T11:24:27.819Z,99091.78
2023-01-30T11:29:28.467Z,99098.24
2023-01-30T11:33:11.888Z,99069.55
2023-01-30T11:34:23.362Z,99069.55
2023-01-30T11:34:33.316Z,99069.55
2023-01-30T11:39:27.849Z,99065.86
2023-01-30T11:41:19.830Z,99065.37
2023-01-30T11:42:10.898Z,99065.37
2023-01-30T11:44:25.728Z,99065.37
2023-01-30T11:46:18.907Z,99053.53
2023-01-30T11:49:46.059Z,99053.53
2023-01-30T11:49:48.190Z,99053.53
2023-01-30T11:54:29.318Z,99047.75
2023-01-30T11:55:38.070Z,99047.75
2023-01-30T11:59:25.540Z,99050.73
2023-01-30T12:03:20.720Z,99035.63
2023-01-30T12:04:21.993Z,99035.63
2023-01-30T12:09:31.648Z,99034.66
2023-01-30T12:10:28.043Z,99034.66
2023-01-30T12:12:35.069Z,99037.98000000001
2023-01-30T12:14:34.420Z,99037.98000000001
2023-01-30T12:16:53.145Z,99031.91
2023-01-30T12:19:33.058Z,99031.91
2023-01-30T12:24:27.670Z,99026.59
2023-01-30T12:29:28.909Z,99024.18000000001
2023-01-30T12:31:41.181Z,99028.83
2023-01-30T12:33:10.989Z,99028.83
2023-01-30T12:34:25.789Z,99028.83
2023-01-30T12:34:35.011Z,99028.83
2023-01-30T12:39:33.342Z,99026.78
2023-01-30T12:39:59.050Z,99026.78
2023-01-30T12:44:41.722Z,99024.22
2023-01-30T12:46:36.113Z,99020.22
2023-01-30T12:49:34.496Z,99020.22
2023-01-30T12:54:36.495Z,99018.91
2023-01-30T12:59:27.719Z,99017.11
2023-01-30T13:03:02.942Z,99024.64
2023-01-30T13:04:40.026Z,99024.64
2023-01-30T13:09:41.723Z,99016.8
2023-01-30T13:14:29.809Z,99014.11
2023-01-30T13:19:40.442Z,99020.28
2023-01-30T13:21:10.785Z,99019.73000000001
2023-01-30T13:24:37.772Z,99019.73000000001
2023-01-30T13:29:28.953Z,99014.65
2023-01-30T13:34:27.522Z,99005.44
2023-01-30T13:39:09.480Z,98997.55
2023-01-30T13:39:31.543Z,98997.55
2023-01-30T13:43:21.471Z,99000.11
2023-01-30T13:44:26.623Z,99000.11
2023-01-30T13:49:27.737Z,98989.98
2023-01-30T13:51:21.619Z,98995.98999999999
2023-01-30T13:54:35.799Z,98995.98999999999
2023-01-30T13:59:39.478Z,98993.25
2023-01-30T14:00:36.394Z,98993.25
2023-01-30T14:04:42.116Z,98986.89
2023-01-30T14:09:27.882Z,99002.64
2023-01-30T14:14:26.592Z,99010.20999999999
2023-01-30T14:19:32.688Z,99011.87999999999
2023-01-30T14:24:24.052Z,99028.22
2023-01-30T14:29:41.707Z,99023.01999999999
2023-01-30T14:34:40.406Z,99025.44
2023-01-30T14:39:36.443Z,99029.94
2023-01-30T14:42:06.197Z,99029.04999999999
2023-01-30T14:43:16.749Z,99029.04999999999
2023-01-30T14:44:41.380Z,99029.04999999999
2023-01-30T14:46:22.100Z,99034.03
2023-01-30T14:49:26.057Z,99034.03
2023-01-30T14:54:33.247Z,99027.73
2023-01-30T14:59:25.389Z,99033.89
2023-01-30T15:04:22.132Z,99026.45
2023-01-30T15:06:01.515Z,99026.45
2023-01-30T15:09:24.638Z,99026.92
2023-01-30T15:14:29.995Z,99030.84
2023-01-30T15:19:41.488Z,99035.92
2023-01-30T15:24:35.973Z,99042.52
2023-01-30T15:29:32.846Z,99041.90999999999
2023-01-30T15:34:22.517Z,99049.01999999999
2023-01-30T15:39:23.698Z,99051.53
2023-01-30T15:43:46.180Z,99052.23
2023-01-30T15:44:38.665Z,99052.23
2023-01-30T15:46:15.882Z,99056.28
2023-01-30T15:49:39.379Z,99056.28
2023-01-30T15:54:23.090Z,99056.06
2023-01-30T15:58:31.990Z,99063.15
2023-01-30T15:59:29.315Z,99063.15
2023-01-30T16:00:56.348Z,99063.15
2023-01-30T16:04:25.855Z,99067.14
2023-01-30T16:06:04.247Z,99067.14
2023-01-30T16:09:19.237Z,99068.02
2023-01-30T16:09:23.253Z,99068.02
2023-01-30T16:14:22.010Z,99076.25
2023-01-30T16:16:02.199Z,99076.25
2023-01-30T16:19:25.672Z,99074.23999999999
2023-01-30T16:19:31.377Z,99074.23999999999
2023-01-30T16:24:25.272Z,99075.22
2023-01-30T16:29:25.223Z,99053.02
2023-01-30T16:32:13.891Z,99060.44
2023-01-30T16:33:59.643Z,99060.44
2023-01-30T16:34:27.703Z,99060.44
2023-01-30T16:38:44.628Z,99063.58
2023-01-30T16:39:27.818Z,99063.58
2023-01-30T16:42:56.641Z,99060.79999999999
2023-01-30T16:44:23.587Z,99060.79999999999
2023-01-30T16:49:23.923Z,99073.72
2023-01-30T16:50:43.977Z,99073.72
2023-01-30T16:54:26.902Z,99073.51999999999
2023-01-30T16:55:36.712Z,99073.51999999999
2023-01-30T16:59:29.927Z,99088.73
2023-01-30T17:04:23.046Z,99082.25
2023-01-30T17:09:34.066Z,99080.06
2023-01-30T17:10:59.107Z,99080.06
2023-01-30T17:14:23.127Z,99079.97
2023-01-30T17:19:21.454Z,99080.87000000001
2023-01-30T17:24:22.761Z,99080.28
2023-01-30T17:29:41.053Z,99084.22
2023-01-30T17:34:22.419Z,99092.96
2023-01-30T17:38:14.063Z,99099.98000000001
2023-01-30T17:39:24.598Z,99099.98000000001
2023-01-30T17:44:21.502Z,99096.99
2023-01-30T17:49:23.089Z,99099.44
2023-01-30T17:53:17.305Z,99095.4
2023-01-30T17:54:21.644Z,99095.4
2023-01-30T17:59:21.783Z,99092.43000000001
2023-01-30T18:02:27.682Z,99088.03
2023-01-30T18:04:21.419Z,99088.03
2023-01-30T18:04:52.681Z,99088.03
2023-01-30T18:09:23.305Z,99093.46
2023-01-30T18:11:00.288Z,99093.46
2023-01-30T18:14:22.892Z,99097.49
2023-01-30T18:14:43.355Z,99097.49
2023-01-30T18:17:00.996Z,99104.14
2023-01-30T18:19:22.921Z,99104.14
2023-01-30T18:21:16.873Z,99103.79000000001
2023-01-30T18:24:21.396Z,99103.79000000001
2023-01-30T18:29:21.649Z,99108.87
2023-01-30T18:34:21.359Z,99108.98999999999
2023-01-30T18:36:17.093Z,99115.48
2023-01-30T18:38:01.487Z,99115.48
2023-01-30T18:39:21.367Z,99115.48
2023-01-30T18:44:21.681Z,99120.7
2023-01-30T18:46:45.652Z,99108.0
2023-01-30T18:49:21.363Z,99108.0
2023-01-30T18:53:52.649Z,99110.06
2023-01-30T18:54:21.410Z,99110.06
2023-01-30T18:56:33.078Z,99105.45
2023-01-30T18:59:22.369Z,99105.45
2023-01-30T19:04:21.320Z,99109.92
2023-01-30T19:09:21.779Z,99106.76999999999
2023-01-30T19:14:21.379Z,99119.12
2023-01-30T19:16:12.987Z,99115.36
2023-01-30T19:19:21.544Z,99115.36
2023-01-30T19:23:25.918Z,99115.8
2023-01-30T19:24:22.753Z,99115.8
2023-01-30T19:29:21.327Z,99122.34
2023-01-30T19:34:21.424Z,99120.7
2023-01-30T19:39:21.477Z,99124.68000000001
2023-01-30T19:41:46.269Z,99129.88
2023-01-30T19:44:21.417Z,99129.88
2023-01-30T19:48:31.276Z,99124.47
2023-01-30T19:49:21.384Z,99124.47
2023-01-30T19:54:21.369Z,99132.78
2023-01-30T19:59:21.831Z,99131.76
2023-01-30T20:04:21.311Z,99135.1
2023-01-30T20:09:21.470Z,99127.17
2023-01-30T20:14:21.793Z,99134.46
2023-01-30T20:19:21.298Z,99129.57
2023-01-30T20:20:18.364Z,99129.57
2023-01-30T20:24:21.405Z,99133.23000000001
2023-01-30T20:29:21.679Z,99135.96
2023-01-30T20:34:21.403Z,99142.26999999999
2023-01-30T20:36:15.664Z,99158.39
2023-01-30T20:39:21.501Z,99158.39
2023-01-30T20:44:21.822Z,99167.94
2023-01-30T20:46:39.923Z,99180.1
2023-01-30T20:49:22.271Z,99180.1
2023-01-30T20:52:01.321Z,99187.27
2023-01-30T20:54:22.445Z,99187.27
2023-01-30T20:55:33.168Z,99187.27
2023-01-30T20:58:31.442Z,99186.37999999999
2023-01-30T20:59:23.312Z,99186.37999999999
2023-01-30T20:59:44.137Z,99186.37999999999
2023-01-30T21:00:31.016Z,99186.37999999999
2023-01-30T21:04:23.303Z,99198.95
2023-01-30T21:06:58.089Z,99196.08
2023-01-30T21:09:22.492Z,99196.08
2023-01-30T21:11:20.983Z,99207.73000000001
2023-01-30T21:14:21.558Z,99207.73000000001
2023-01-30T21:19:23.244Z,99211.83
2023-01-30T21:24:23.552Z,99212.87
2023-01-30T21:24:45.097Z,99212.87
2023-01-30T21:27:14.348Z,99227.04
2023-01-30T21:29:23.662Z,99227.04
2023-01-30T21:34:00.523Z,99229.5
2023-01-30T21:34:21.393Z,99229.5
2023-01-30T21:35:26.450Z,99229.5
2023-01-30T21:39:31.479Z,99232.22
2023-01-30T21:44:25.022Z,99231.19
2023-01-30T21:49:24.236Z,99236.08
2023-01-30T21:50:36.561Z,99236.08
2023-01-30T21:51:32.438Z,99238.47
2023-01-30T21:54:22.096Z,99238.47
2023-01-30T21:57:48.233Z,99236.06
2023-01-30T21:59:21.172Z,99236.06
2023-01-30T22:01:49.373Z,99238.68
2023-01-30T22:04:21.399Z,99238.68
2023-01-30T22:08:37.449Z,99237.23
2023-01-30T22:09:21.268Z,99237.23
2023-01-30T22:14:21.278Z,99244.59000000001
2023-01-30T22:19:21.486Z,99253.7
2023-01-30T22:21:35.308Z,99258.23000000001
2023-01-30T22:24:21.354Z,99258.23000000001
2023-01-30T22:29:22.074Z,99267.04
2023-01-30T22:34:21.636Z,99272.5
2023-01-30T22:39:21.173Z,99278.56
2023-01-30T22:44:21.610Z,99291.4
2023-01-30T22:49:21.285Z,99289.0
2023-01-30T22:54:22.655Z,99281.81
2023-01-30T22:59:22.225Z,99282.65
2023-01-30T23:04:22.755Z,99277.22
2023-01-30T23:09:22.440Z,99277.88
2023-01-30T23:14:08.600Z,99284.52
2023-01-30T23:14:21.036Z,99284.52
2023-01-30T23:19:21.471Z,99280.55
2023-01-30T23:20:47.072Z,99280.55
2023-01-30T23:21:43.959Z,99286.3
2023-01-30T23:24:21.361Z,99286.3
2023-01-30T23:27:18.257Z,99284.22
2023-01-30T23:29:21.090Z,99284.22
2023-01-30T23:34:21.430Z,99287.84000000001
2023-01-30T23:39:21.195Z,99286.08
2023-01-30T23:44:21.299Z,99289.20000000001
2023-01-30T23:49:21.579Z,99290.91
2023-01-30T23:54:21.080Z,99290.37
2023-01-30T23:55:55.021Z,99290.37
2023-01-30T23:59:21.241Z,99297.46
